Overview Statistics Trail Chart Weather Telemetry Raw packets
 

This is the latest recevied weather packets stored in our database for station/object IZ5ILU-16. If no packets are shown the sender has not sent any weather packets the latest 10 day(s).

<< 37 38 39 40 41 42 43 >>
Time Temp. Humidity Pressure Rain* Wind** Luminosity Snow
1788100906 30.56° C 34% 1013.7 hPa 0 mm - - -
1788100306 30° C 39% 1013.7 hPa 0 mm - - -
1788099706 30° C 35% 1013.9 hPa 0 mm - - -
1788099106 29.44° C 36% 1014 hPa 0 mm - - -
1788098506 29.44° C 36% 1014.1 hPa 0 mm - - -
1788097906 29.44° C 35% 1014.2 hPa 0 mm - - -
1788097306 29.44° C 35% 1014.3 hPa 0 mm - - -
1788096706 28.89° C 34% 1014.5 hPa 0 mm - - -
1788096106 28.89° C 36% 1014.4 hPa 0 mm - - -
1788095506 28.33° C 36% 1014.6 hPa 0 mm - - -
1788094906 28.33° C 37% 1014.7 hPa 0 mm - - -
1788094306 28.33° C 40% 1014.7 hPa 0 mm - - -
1788093706 27.78° C 43% 1014.8 hPa 0 mm - - -
1788093106 27.22° C 41% 1014.9 hPa 0 mm - - -
1788092506 27.22° C 40% 1015 hPa 0 mm - - -
1788091906 27.22° C 44% 1015 hPa 0 mm - - -
1788091312 27.22° C 43% 1015.1 hPa 0 mm - - -
1788090706 26.67° C 44% 1015 hPa 0 mm - - -
1788090106 26.67° C 44% 1015.1 hPa 0 mm - - -
1788089506 26.67° C 46% 1015 hPa 0 mm - - -
1788088906 26.11° C 46% 1015.1 hPa 0 mm - - -
1788088306 26.67° C 45% 1015.1 hPa 0 mm - - -
1788087706 26.11° C 45% 1015.3 hPa 0 mm - - -
1788087106 26.11° C 48% 1015.2 hPa 0 mm - - -
1788086506 25.56° C 51% 1015.3 hPa 0 mm - - -

* Rain latest hour (hover to see other rain measurements)
** Current wind speed in m/s (hover to see current wind gust speed)